sensor_id;sensor_type;location;lat;lon;timestamp;P1;durP1;ratioP1;P2;durP2;ratioP2
928;SDS011;451;47.988;7.842;2022-11-15T00:06:10;9.43;;;4.80;;
928;SDS011;451;47.988;7.842;2022-11-15T00:15:31;4.67;;;4.13;;
928;SDS011;451;47.988;7.842;2022-11-15T00:24:51;5.93;;;4.80;;
928;SDS011;451;47.988;7.842;2022-11-15T00:34:11;5.03;;;4.47;;
928;SDS011;451;47.988;7.842;2022-11-15T00:43:32;4.57;;;3.83;;
928;SDS011;451;47.988;7.842;2022-11-15T00:52:53;3.70;;;3.40;;
928;SDS011;451;47.988;7.842;2022-11-15T01:02:13;6.23;;;4.10;;
928;SDS011;451;47.988;7.842;2022-11-15T01:11:33;4.20;;;3.57;;
928;SDS011;451;47.988;7.842;2022-11-15T01:20:54;4.33;;;3.80;;
928;SDS011;451;47.988;7.842;2022-11-15T01:30:14;5.03;;;3.67;;
928;SDS011;451;47.988;7.842;2022-11-15T01:39:35;2.70;;;2.20;;
928;SDS011;451;47.988;7.842;2022-11-15T01:48:56;3.40;;;3.00;;
928;SDS011;451;47.988;7.842;2022-11-15T01:58:20;3.67;;;2.30;;
928;SDS011;451;47.988;7.842;2022-11-15T02:07:41;5.13;;;2.70;;
928;SDS011;451;47.988;7.842;2022-11-15T02:36:31;1.77;;;1.67;;
928;SDS011;451;47.988;7.842;2022-11-15T02:46:26;1.90;;;1.73;;
928;SDS011;451;47.988;7.842;2022-11-15T02:56:07;1.70;;;1.57;;
928;SDS011;451;47.988;7.842;2022-11-15T03:15:37;1.70;;;1.60;;
928;SDS011;451;47.988;7.842;2022-11-15T03:25:02;2.90;;;2.20;;
928;SDS011;451;47.988;7.842;2022-11-15T03:44:04;2.93;;;2.10;;
928;SDS011;451;47.988;7.842;2022-11-15T03:53:30;2.57;;;2.37;;
928;SDS011;451;47.988;7.842;2022-11-15T04:02:51;3.67;;;2.80;;
928;SDS011;451;47.988;7.842;2022-11-15T04:12:12;3.10;;;2.80;;
928;SDS011;451;47.988;7.842;2022-11-15T04:21:32;4.27;;;3.87;;
928;SDS011;451;47.988;7.842;2022-11-15T04:31:12;4.50;;;3.73;;
928;SDS011;451;47.988;7.842;2022-11-15T04:40:34;4.97;;;4.20;;
928;SDS011;451;47.988;7.842;2022-11-15T04:49:55;4.40;;;4.00;;
928;SDS011;451;47.988;7.842;2022-11-15T04:59:15;3.87;;;3.43;;
928;SDS011;451;47.988;7.842;2022-11-15T05:08:36;4.80;;;3.90;;
928;SDS011;451;47.988;7.842;2022-11-15T05:17:57;6.70;;;4.80;;
928;SDS011;451;47.988;7.842;2022-11-15T05:27:19;6.13;;;4.30;;
928;SDS011;451;47.988;7.842;2022-11-15T05:36:42;5.63;;;4.10;;
928;SDS011;451;47.988;7.842;2022-11-15T05:46:04;5.30;;;4.03;;
928;SDS011;451;47.988;7.842;2022-11-15T05:55:25;4.83;;;4.33;;
928;SDS011;451;47.988;7.842;2022-11-15T06:04:45;5.00;;;4.53;;
928;SDS011;451;47.988;7.842;2022-11-15T06:14:06;5.90;;;4.43;;
928;SDS011;451;47.988;7.842;2022-11-15T06:23:27;8.53;;;6.80;;
928;SDS011;451;47.988;7.842;2022-11-15T06:32:48;5.67;;;4.50;;
928;SDS011;451;47.988;7.842;2022-11-15T06:42:08;5.50;;;5.00;;
928;SDS011;451;47.988;7.842;2022-11-15T06:51:29;6.33;;;4.93;;
928;SDS011;451;47.988;7.842;2022-11-15T07:00:49;9.63;;;5.70;;
928;SDS011;451;47.988;7.842;2022-11-15T07:10:09;12.40;;;8.60;;
928;SDS011;451;47.988;7.842;2022-11-15T07:19:30;8.80;;;6.63;;
928;SDS011;451;47.988;7.842;2022-11-15T07:28:51;8.23;;;7.13;;
928;SDS011;451;47.988;7.842;2022-11-15T07:38:11;7.27;;;6.57;;
928;SDS011;451;47.988;7.842;2022-11-15T07:47:31;9.00;;;6.80;;
928;SDS011;451;47.988;7.842;2022-11-15T07:56:52;6.87;;;5.83;;
928;SDS011;451;47.988;7.842;2022-11-15T08:06:12;7.03;;;6.10;;
928;SDS011;451;47.988;7.842;2022-11-15T08:15:33;8.50;;;5.23;;
928;SDS011;451;47.988;7.842;2022-11-15T08:24:54;7.10;;;6.30;;
928;SDS011;451;47.988;7.842;2022-11-15T08:34:15;7.30;;;6.37;;
928;SDS011;451;47.988;7.842;2022-11-15T08:43:36;7.30;;;6.60;;
928;SDS011;451;47.988;7.842;2022-11-15T08:52:56;9.40;;;6.00;;
928;SDS011;451;47.988;7.842;2022-11-15T09:02:16;6.40;;;5.00;;
928;SDS011;451;47.988;7.842;2022-11-15T09:11:37;6.83;;;5.17;;
928;SDS011;451;47.988;7.842;2022-11-15T09:20:58;4.97;;;4.47;;
928;SDS011;451;47.988;7.842;2022-11-15T09:30:19;5.83;;;4.27;;
928;SDS011;451;47.988;7.842;2022-11-15T09:39:40;8.87;;;6.40;;
928;SDS011;451;47.988;7.842;2022-11-15T09:49:01;6.87;;;6.17;;
928;SDS011;451;47.988;7.842;2022-11-15T10:07:35;10.73;;;6.80;;
928;SDS011;451;47.988;7.842;2022-11-15T10:25:58;4.50;;;3.90;;
928;SDS011;451;47.988;7.842;2022-11-15T10:35:01;6.30;;;4.70;;
928;SDS011;451;47.988;7.842;2022-11-15T10:44:30;5.47;;;4.33;;
928;SDS011;451;47.988;7.842;2022-11-15T10:53:37;4.93;;;3.90;;
928;SDS011;451;47.988;7.842;2022-11-15T11:03:20;5.03;;;4.37;;
928;SDS011;451;47.988;7.842;2022-11-15T11:12:31;6.97;;;5.30;;
928;SDS011;451;47.988;7.842;2022-11-15T11:21:39;4.30;;;3.60;;
928;SDS011;451;47.988;7.842;2022-11-15T11:30:47;4.10;;;3.13;;
928;SDS011;451;47.988;7.842;2022-11-15T11:49:16;2.77;;;2.57;;
928;SDS011;451;47.988;7.842;2022-11-15T11:58:33;2.90;;;2.37;;
928;SDS011;451;47.988;7.842;2022-11-15T12:07:38;2.80;;;2.00;;
928;SDS011;451;47.988;7.842;2022-11-15T12:16:42;3.50;;;1.97;;
928;SDS011;451;47.988;7.842;2022-11-15T12:25:55;2.40;;;1.90;;
928;SDS011;451;47.988;7.842;2022-11-15T12:35:03;7.07;;;3.90;;
928;SDS011;451;47.988;7.842;2022-11-15T12:53:33;10.93;;;7.60;;
928;SDS011;451;47.988;7.842;2022-11-15T13:02:39;15.77;;;12.27;;
928;SDS011;451;47.988;7.842;2022-11-15T13:11:45;8.20;;;7.23;;
928;SDS011;451;47.988;7.842;2022-11-15T13:20:50;7.40;;;6.00;;
928;SDS011;451;47.988;7.842;2022-11-15T13:29:52;6.20;;;4.40;;
928;SDS011;451;47.988;7.842;2022-11-15T13:38:55;4.57;;;3.43;;
928;SDS011;451;47.988;7.842;2022-11-15T13:48:02;4.00;;;3.10;;
928;SDS011;451;47.988;7.842;2022-11-15T13:57:05;3.20;;;2.33;;
928;SDS011;451;47.988;7.842;2022-11-15T14:06:13;3.40;;;3.10;;
928;SDS011;451;47.988;7.842;2022-11-15T14:15:27;6.00;;;4.33;;
928;SDS011;451;47.988;7.842;2022-11-15T14:24:30;5.97;;;4.27;;
928;SDS011;451;47.988;7.842;2022-11-15T14:33:34;3.40;;;3.10;;
928;SDS011;451;47.988;7.842;2022-11-15T14:42:38;7.27;;;4.47;;
928;SDS011;451;47.988;7.842;2022-11-15T14:51:40;9.30;;;4.37;;
928;SDS011;451;47.988;7.842;2022-11-15T15:00:43;9.83;;;3.97;;
928;SDS011;451;47.988;7.842;2022-11-15T15:09:44;7.07;;;4.93;;
928;SDS011;451;47.988;7.842;2022-11-15T15:18:47;10.63;;;4.83;;
928;SDS011;451;47.988;7.842;2022-11-15T15:27:49;8.20;;;6.43;;
928;SDS011;451;47.988;7.842;2022-11-15T15:37:06;14.40;;;10.27;;
928;SDS011;451;47.988;7.842;2022-11-15T15:46:09;20.17;;;10.57;;
928;SDS011;451;47.988;7.842;2022-11-15T15:55:13;17.63;;;11.70;;
928;SDS011;451;47.988;7.842;2022-11-15T16:04:17;21.43;;;11.87;;
928;SDS011;451;47.988;7.842;2022-11-15T16:13:18;17.47;;;11.00;;
928;SDS011;451;47.988;7.842;2022-11-15T16:22:20;13.93;;;9.30;;
928;SDS011;451;47.988;7.842;2022-11-15T16:31:22;21.17;;;11.10;;
928;SDS011;451;47.988;7.842;2022-11-15T16:49:31;22.03;;;12.77;;
928;SDS011;451;47.988;7.842;2022-11-15T16:58:32;20.93;;;12.83;;
928;SDS011;451;47.988;7.842;2022-11-15T17:07:38;25.90;;;13.23;;
928;SDS011;451;47.988;7.842;2022-11-15T17:16:40;53.80;;;22.10;;
928;SDS011;451;47.988;7.842;2022-11-15T17:25:44;24.57;;;11.60;;
928;SDS011;451;47.988;7.842;2022-11-15T17:34:46;22.13;;;11.37;;
928;SDS011;451;47.988;7.842;2022-11-15T17:43:48;28.20;;;13.17;;
928;SDS011;451;47.988;7.842;2022-11-15T17:52:50;25.63;;;14.03;;
928;SDS011;451;47.988;7.842;2022-11-15T18:01:52;19.40;;;12.10;;
928;SDS011;451;47.988;7.842;2022-11-15T18:11:05;32.93;;;14.60;;
928;SDS011;451;47.988;7.842;2022-11-15T18:20:08;17.27;;;13.60;;
928;SDS011;451;47.988;7.842;2022-11-15T18:29:10;14.07;;;11.10;;
928;SDS011;451;47.988;7.842;2022-11-15T18:38:12;17.57;;;11.67;;
928;SDS011;451;47.988;7.842;2022-11-15T18:47:14;14.30;;;12.10;;
928;SDS011;451;47.988;7.842;2022-11-15T18:56:16;12.30;;;9.30;;
928;SDS011;451;47.988;7.842;2022-11-15T19:05:20;18.43;;;11.53;;
928;SDS011;451;47.988;7.842;2022-11-15T19:14:21;15.20;;;13.60;;
928;SDS011;451;47.988;7.842;2022-11-15T19:23:24;14.57;;;9.20;;
928;SDS011;451;47.988;7.842;2022-11-15T19:32:26;10.30;;;8.30;;
928;SDS011;451;47.988;7.842;2022-11-15T19:41:28;7.87;;;7.00;;
928;SDS011;451;47.988;7.842;2022-11-15T19:50:30;12.23;;;8.43;;
928;SDS011;451;47.988;7.842;2022-11-15T19:59:32;14.07;;;10.60;;
928;SDS011;451;47.988;7.842;2022-11-15T20:08:33;12.70;;;9.20;;
928;SDS011;451;47.988;7.842;2022-11-15T20:17:35;15.20;;;10.73;;
928;SDS011;451;47.988;7.842;2022-11-15T20:26:37;11.27;;;9.07;;
928;SDS011;451;47.988;7.842;2022-11-15T20:35:39;14.83;;;10.63;;
928;SDS011;451;47.988;7.842;2022-11-15T20:44:41;11.60;;;8.57;;
928;SDS011;451;47.988;7.842;2022-11-15T20:53:43;10.50;;;9.40;;
928;SDS011;451;47.988;7.842;2022-11-15T21:02:46;6.97;;;6.27;;
928;SDS011;451;47.988;7.842;2022-11-15T21:11:48;7.70;;;5.67;;
928;SDS011;451;47.988;7.842;2022-11-15T21:21:08;10.27;;;6.70;;
928;SDS011;451;47.988;7.842;2022-11-15T21:30:10;9.90;;;7.60;;
928;SDS011;451;47.988;7.842;2022-11-15T21:39:13;7.10;;;5.63;;
928;SDS011;451;47.988;7.842;2022-11-15T21:48:14;8.57;;;6.23;;
928;SDS011;451;47.988;7.842;2022-11-15T21:57:16;12.73;;;7.20;;
928;SDS011;451;47.988;7.842;2022-11-15T22:06:20;4.10;;;3.77;;
928;SDS011;451;47.988;7.842;2022-11-15T22:15:22;12.00;;;6.03;;
928;SDS011;451;47.988;7.842;2022-11-15T22:24:25;9.80;;;6.10;;
928;SDS011;451;47.988;7.842;2022-11-15T22:33:28;11.10;;;6.00;;
928;SDS011;451;47.988;7.842;2022-11-15T22:42:33;7.57;;;4.93;;
928;SDS011;451;47.988;7.842;2022-11-15T22:51:35;6.50;;;3.70;;
928;SDS011;451;47.988;7.842;2022-11-15T23:00:39;2.30;;;2.07;;
928;SDS011;451;47.988;7.842;2022-11-15T23:09:41;5.40;;;2.57;;
928;SDS011;451;47.988;7.842;2022-11-15T23:18:43;3.20;;;2.40;;
928;SDS011;451;47.988;7.842;2022-11-15T23:27:45;2.80;;;2.33;;
928;SDS011;451;47.988;7.842;2022-11-15T23:36:49;2.73;;;2.43;;
928;SDS011;451;47.988;7.842;2022-11-15T23:45:51;4.80;;;3.63;;
928;SDS011;451;47.988;7.842;2022-11-15T23:54:53;6.30;;;5.40;;
